Bray, Oklahoma
Current Conditions -  °F | °C
As of 6:15 PM on Saturday 22 Nov 2014 (Local Time) from KDUC Reporting Station
Scattered Clouds Scattered Clouds  
Wind Chill: 55°   Ceiling: Unl
Heat Index: 55°   Visibility: 10mi
Dew Point: 55°   Wind: 21mph
Humidity: 100%   Direction: 110°ESE
Pressure: 29.81"   Gusts: 26mph
Location:  34.61°N, 97.82°W
Report Text: KDUC 230015Z AUTO 11018G23KT 10SM SCT100 13/13 A2981 RMK AO2
Loading
Personal Weather Stations






























Interactive Weather Map New forecast layout! Learn more

10-Day Weather Forecast

Advertisements
Track Severe Weather on mobile